sensor_id;sensor_type;location;lat;lon;timestamp;temperature;humidity
9167;DHT22;4618;48.818;9.088;2023-05-09T00:01:52;13.10;99.90
9167;DHT22;4618;48.818;9.088;2023-05-09T00:04:18;13.20;99.90
9167;DHT22;4618;48.818;9.088;2023-05-09T00:06:44;13.20;99.90
9167;DHT22;4618;48.818;9.088;2023-05-09T00:09:10;13.30;99.90
9167;DHT22;4618;48.818;9.088;2023-05-09T00:11:36;13.30;99.90
9167;DHT22;4618;48.818;9.088;2023-05-09T00:14:02;13.20;99.90
9167;DHT22;4618;48.818;9.088;2023-05-09T00:16:28;13.30;99.90
9167;DHT22;4618;48.818;9.088;2023-05-09T00:18:53;13.30;99.90
9167;DHT22;4618;48.818;9.088;2023-05-09T00:21:20;13.40;99.90
9167;DHT22;4618;48.818;9.088;2023-05-09T00:23:46;13.40;99.90
9167;DHT22;4618;48.818;9.088;2023-05-09T00:26:11;13.40;99.90
9167;DHT22;4618;48.818;9.088;2023-05-09T00:28:37;13.40;99.90
9167;DHT22;4618;48.818;9.088;2023-05-09T00:31:02;13.40;99.90
9167;DHT22;4618;48.818;9.088;2023-05-09T00:33:28;13.50;99.90
9167;DHT22;4618;48.818;9.088;2023-05-09T00:35:54;13.50;99.90
9167;DHT22;4618;48.818;9.088;2023-05-09T00:38:19;13.50;99.90
9167;DHT22;4618;48.818;9.088;2023-05-09T00:40:45;13.50;99.90
9167;DHT22;4618;48.818;9.088;2023-05-09T00:43:10;13.60;99.90
9167;DHT22;4618;48.818;9.088;2023-05-09T00:45:36;13.60;99.90
9167;DHT22;4618;48.818;9.088;2023-05-09T00:48:01;13.70;99.90
9167;DHT22;4618;48.818;9.088;2023-05-09T00:50:27;13.80;67.10
9167;DHT22;4618;48.818;9.088;2023-05-09T00:52:52;13.80;22.80
9167;DHT22;4618;48.818;9.088;2023-05-09T00:55:18;13.90;1.00
9167;DHT22;4618;48.818;9.088;2023-05-09T00:57:43;13.90;1.00
9167;DHT22;4618;48.818;9.088;2023-05-09T01:00:09;13.80;1.00
9167;DHT22;4618;48.818;9.088;2023-05-09T01:02:41;13.80;1.00
9167;DHT22;4618;48.818;9.088;2023-05-09T01:05:07;13.80;1.00
9167;DHT22;4618;48.818;9.088;2023-05-09T01:07:45;13.80;1.00
9167;DHT22;4618;48.818;9.088;2023-05-09T01:10:17;13.70;1.00
9167;DHT22;4618;48.818;9.088;2023-05-09T01:12:46;13.70;1.00
9167;DHT22;4618;48.818;9.088;2023-05-09T01:23:21;13.70;1.00
9167;DHT22;4618;48.818;9.088;2023-05-09T01:25:54;13.70;1.00
9167;DHT22;4618;48.818;9.088;2023-05-09T01:30:50;13.70;1.00
9167;DHT22;4618;48.818;9.088;2023-05-09T01:33:18;13.70;1.00
9167;DHT22;4618;48.818;9.088;2023-05-09T01:35:51;13.70;1.00
9167;DHT22;4618;48.818;9.088;2023-05-09T01:38:19;13.70;1.00
9167;DHT22;4618;48.818;9.088;2023-05-09T01:40:46;13.70;1.00
9167;DHT22;4618;48.818;9.088;2023-05-09T01:43:12;13.80;1.00
9167;DHT22;4618;48.818;9.088;2023-05-09T01:45:40;13.70;1.00
9167;DHT22;4618;48.818;9.088;2023-05-09T01:48:06;13.50;1.00
9167;DHT22;4618;48.818;9.088;2023-05-09T01:50:32;13.40;1.00
9167;DHT22;4618;48.818;9.088;2023-05-09T01:52:59;13.30;1.00
9167;DHT22;4618;48.818;9.088;2023-05-09T01:55:26;13.20;1.00
9167;DHT22;4618;48.818;9.088;2023-05-09T01:57:52;13.10;1.00
9167;DHT22;4618;48.818;9.088;2023-05-09T02:00:18;13.00;29.10
9167;DHT22;4618;48.818;9.088;2023-05-09T02:02:44;12.90;93.60
9167;DHT22;4618;48.818;9.088;2023-05-09T02:05:10;12.80;99.90
9167;DHT22;4618;48.818;9.088;2023-05-09T02:07:36;12.90;99.90
9167;DHT22;4618;48.818;9.088;2023-05-09T02:10:01;12.90;99.90
9167;DHT22;4618;48.818;9.088;2023-05-09T02:12:27;12.90;99.90
9167;DHT22;4618;48.818;9.088;2023-05-09T02:14:53;12.80;99.90
9167;DHT22;4618;48.818;9.088;2023-05-09T02:17:18;12.80;99.90
9167;DHT22;4618;48.818;9.088;2023-05-09T02:19:44;12.80;99.90
9167;DHT22;4618;48.818;9.088;2023-05-09T02:22:10;12.80;99.90
9167;DHT22;4618;48.818;9.088;2023-05-09T02:24:36;12.90;99.90
9167;DHT22;4618;48.818;9.088;2023-05-09T02:27:01;12.90;99.90
9167;DHT22;4618;48.818;9.088;2023-05-09T02:29:30;12.90;99.90
9167;DHT22;4618;48.818;9.088;2023-05-09T02:31:56;12.80;99.90
9167;DHT22;4618;48.818;9.088;2023-05-09T02:34:24;12.90;99.90
9167;DHT22;4618;48.818;9.088;2023-05-09T02:36:49;12.90;99.90
9167;DHT22;4618;48.818;9.088;2023-05-09T02:39:15;12.90;99.90
9167;DHT22;4618;48.818;9.088;2023-05-09T02:41:46;12.90;99.90
9167;DHT22;4618;48.818;9.088;2023-05-09T02:44:11;12.90;99.90
9167;DHT22;4618;48.818;9.088;2023-05-09T02:46:37;12.90;99.90
9167;DHT22;4618;48.818;9.088;2023-05-09T02:49:02;12.90;99.90
9167;DHT22;4618;48.818;9.088;2023-05-09T02:51:28;12.80;99.90
9167;DHT22;4618;48.818;9.088;2023-05-09T02:53:53;12.90;99.90
9167;DHT22;4618;48.818;9.088;2023-05-09T02:56:19;12.80;99.90
9167;DHT22;4618;48.818;9.088;2023-05-09T02:58:45;12.80;99.90
9167;DHT22;4618;48.818;9.088;2023-05-09T03:01:15;12.80;99.90
9167;DHT22;4618;48.818;9.088;2023-05-09T03:03:41;12.80;99.90
9167;DHT22;4618;48.818;9.088;2023-05-09T03:06:06;12.70;99.90
9167;DHT22;4618;48.818;9.088;2023-05-09T03:08:32;12.80;99.90
9167;DHT22;4618;48.818;9.088;2023-05-09T03:10:57;12.70;99.90
9167;DHT22;4618;48.818;9.088;2023-05-09T03:13:23;12.70;99.90
9167;DHT22;4618;48.818;9.088;2023-05-09T03:15:48;12.60;99.90
9167;DHT22;4618;48.818;9.088;2023-05-09T03:18:13;12.60;99.90
9167;DHT22;4618;48.818;9.088;2023-05-09T03:20:39;12.50;99.90
9167;DHT22;4618;48.818;9.088;2023-05-09T03:23:04;12.50;99.90
9167;DHT22;4618;48.818;9.088;2023-05-09T03:25:30;12.50;99.90
9167;DHT22;4618;48.818;9.088;2023-05-09T03:27:55;12.50;99.90
9167;DHT22;4618;48.818;9.088;2023-05-09T03:30:21;12.60;99.90
9167;DHT22;4618;48.818;9.088;2023-05-09T03:32:46;12.50;99.90
9167;DHT22;4618;48.818;9.088;2023-05-09T03:35:12;12.50;99.90
9167;DHT22;4618;48.818;9.088;2023-05-09T03:37:37;12.40;99.90
9167;DHT22;4618;48.818;9.088;2023-05-09T03:40:03;12.40;99.90
9167;DHT22;4618;48.818;9.088;2023-05-09T03:42:28;12.40;99.90
9167;DHT22;4618;48.818;9.088;2023-05-09T03:44:54;12.50;99.90
9167;DHT22;4618;48.818;9.088;2023-05-09T03:47:19;12.60;99.90
9167;DHT22;4618;48.818;9.088;2023-05-09T03:49:45;12.50;99.90
9167;DHT22;4618;48.818;9.088;2023-05-09T03:52:11;12.60;99.90
9167;DHT22;4618;48.818;9.088;2023-05-09T03:54:36;12.50;99.90
9167;DHT22;4618;48.818;9.088;2023-05-09T03:57:02;12.50;99.90
9167;DHT22;4618;48.818;9.088;2023-05-09T03:59:27;12.50;99.90
9167;DHT22;4618;48.818;9.088;2023-05-09T04:01:53;12.50;99.90
9167;DHT22;4618;48.818;9.088;2023-05-09T04:04:19;12.40;99.90
9167;DHT22;4618;48.818;9.088;2023-05-09T04:06:45;12.40;99.90
9167;DHT22;4618;48.818;9.088;2023-05-09T04:09:10;12.40;99.90
9167;DHT22;4618;48.818;9.088;2023-05-09T04:11:36;12.40;99.90
9167;DHT22;4618;48.818;9.088;2023-05-09T04:14:01;12.50;99.90
9167;DHT22;4618;48.818;9.088;2023-05-09T04:16:31;12.50;99.90
9167;DHT22;4618;48.818;9.088;2023-05-09T04:18:57;12.40;99.90
9167;DHT22;4618;48.818;9.088;2023-05-09T04:21:22;12.50;99.90
9167;DHT22;4618;48.818;9.088;2023-05-09T04:23:48;12.60;99.90
9167;DHT22;4618;48.818;9.088;2023-05-09T04:26:13;12.60;99.90
9167;DHT22;4618;48.818;9.088;2023-05-09T04:28:39;12.60;99.90
9167;DHT22;4618;48.818;9.088;2023-05-09T04:31:05;12.70;99.90
9167;DHT22;4618;48.818;9.088;2023-05-09T04:33:31;12.80;99.90
9167;DHT22;4618;48.818;9.088;2023-05-09T04:35:56;12.70;99.90
9167;DHT22;4618;48.818;9.088;2023-05-09T04:38:22;12.70;99.90
9167;DHT22;4618;48.818;9.088;2023-05-09T04:40:47;12.90;99.90
9167;DHT22;4618;48.818;9.088;2023-05-09T04:43:13;12.90;99.90
9167;DHT22;4618;48.818;9.088;2023-05-09T04:45:38;13.00;99.90
9167;DHT22;4618;48.818;9.088;2023-05-09T04:48:04;13.30;99.90
9167;DHT22;4618;48.818;9.088;2023-05-09T04:50:29;13.30;99.90
9167;DHT22;4618;48.818;9.088;2023-05-09T04:52:55;13.40;99.90
9167;DHT22;4618;48.818;9.088;2023-05-09T04:55:20;13.40;99.90
9167;DHT22;4618;48.818;9.088;2023-05-09T04:57:46;13.50;99.90
9167;DHT22;4618;48.818;9.088;2023-05-09T05:00:11;13.40;99.90
9167;DHT22;4618;48.818;9.088;2023-05-09T05:02:37;13.50;99.90
9167;DHT22;4618;48.818;9.088;2023-05-09T05:05:03;13.60;99.90
9167;DHT22;4618;48.818;9.088;2023-05-09T05:07:29;13.70;92.20
9167;DHT22;4618;48.818;9.088;2023-05-09T05:09:54;13.60;1.00
9167;DHT22;4618;48.818;9.088;2023-05-09T05:12:20;13.50;1.00
9167;DHT22;4618;48.818;9.088;2023-05-09T05:14:46;13.50;65.50
9167;DHT22;4618;48.818;9.088;2023-05-09T05:17:11;13.60;99.90
9167;DHT22;4618;48.818;9.088;2023-05-09T05:19:37;13.80;99.90
9167;DHT22;4618;48.818;9.088;2023-05-09T05:22:02;13.70;1.00
9167;DHT22;4618;48.818;9.088;2023-05-09T05:24:28;13.80;1.00
9167;DHT22;4618;48.818;9.088;2023-05-09T05:26:54;13.80;1.00
9167;DHT22;4618;48.818;9.088;2023-05-09T05:29:19;14.00;1.00
9167;DHT22;4618;48.818;9.088;2023-05-09T05:31:45;14.00;99.90
9167;DHT22;4618;48.818;9.088;2023-05-09T05:34:10;14.20;99.90
9167;DHT22;4618;48.818;9.088;2023-05-09T05:36:36;14.40;1.00
9167;DHT22;4618;48.818;9.088;2023-05-09T05:39:01;14.40;99.90
9167;DHT22;4618;48.818;9.088;2023-05-09T05:41:27;14.60;99.90
9167;DHT22;4618;48.818;9.088;2023-05-09T05:43:52;14.70;99.90
9167;DHT22;4618;48.818;9.088;2023-05-09T05:46:18;14.80;33.00
9167;DHT22;4618;48.818;9.088;2023-05-09T05:48:43;14.90;1.00
9167;DHT22;4618;48.818;9.088;2023-05-09T05:51:09;15.00;1.00
9167;DHT22;4618;48.818;9.088;2023-05-09T05:53:34;15.20;1.00
9167;DHT22;4618;48.818;9.088;2023-05-09T05:56:00;15.50;99.90
9167;DHT22;4618;48.818;9.088;2023-05-09T05:58:25;15.60;1.00
9167;DHT22;4618;48.818;9.088;2023-05-09T06:00:51;15.80;1.00
9167;DHT22;4618;48.818;9.088;2023-05-09T06:03:17;16.00;1.00
9167;DHT22;4618;48.818;9.088;2023-05-09T06:05:42;16.20;28.90
9167;DHT22;4618;48.818;9.088;2023-05-09T06:08:08;16.30;95.80
9167;DHT22;4618;48.818;9.088;2023-05-09T06:10:33;16.60;1.00
9167;DHT22;4618;48.818;9.088;2023-05-09T06:12:59;16.80;17.80
9167;DHT22;4618;48.818;9.088;2023-05-09T06:15:25;16.90;99.90
9167;DHT22;4618;48.818;9.088;2023-05-09T06:17:50;16.80;1.00
9167;DHT22;4618;48.818;9.088;2023-05-09T06:20:15;16.70;39.70
9167;DHT22;4618;48.818;9.088;2023-05-09T06:22:41;16.70;99.90
9167;DHT22;4618;48.818;9.088;2023-05-09T06:25:09;16.90;99.90
9167;DHT22;4618;48.818;9.088;2023-05-09T06:27:44;16.70;71.10
9167;DHT22;4618;48.818;9.088;2023-05-09T06:30:10;16.90;1.00
9167;DHT22;4618;48.818;9.088;2023-05-09T06:32:35;16.90;1.00
9167;DHT22;4618;48.818;9.088;2023-05-09T06:35:01;16.90;1.00
9167;DHT22;4618;48.818;9.088;2023-05-09T06:37:26;17.00;89.70
9167;DHT22;4618;48.818;9.088;2023-05-09T06:39:53;17.20;1.00
9167;DHT22;4618;48.818;9.088;2023-05-09T06:42:18;17.20;1.00
9167;DHT22;4618;48.818;9.088;2023-05-09T06:44:44;17.30;99.90
9167;DHT22;4618;48.818;9.088;2023-05-09T06:47:09;17.30;99.90
9167;DHT22;4618;48.818;9.088;2023-05-09T06:49:35;17.40;99.90
9167;DHT22;4618;48.818;9.088;2023-05-09T06:52:01;17.50;99.90
9167;DHT22;4618;48.818;9.088;2023-05-09T06:54:26;17.60;99.90
9167;DHT22;4618;48.818;9.088;2023-05-09T06:56:52;17.70;1.00
9167;DHT22;4618;48.818;9.088;2023-05-09T06:59:17;17.90;1.00
9167;DHT22;4618;48.818;9.088;2023-05-09T07:01:43;18.30;1.00
9167;DHT22;4618;48.818;9.088;2023-05-09T07:04:08;18.70;1.00
9167;DHT22;4618;48.818;9.088;2023-05-09T07:06:34;19.00;1.00
9167;DHT22;4618;48.818;9.088;2023-05-09T07:09:00;19.20;99.90
9167;DHT22;4618;48.818;9.088;2023-05-09T07:11:25;19.40;99.90
9167;DHT22;4618;48.818;9.088;2023-05-09T07:13:51;19.50;99.90
9167;DHT22;4618;48.818;9.088;2023-05-09T07:16:16;19.60;1.00
9167;DHT22;4618;48.818;9.088;2023-05-09T07:18:42;19.80;99.90
9167;DHT22;4618;48.818;9.088;2023-05-09T07:21:08;19.90;99.90
9167;DHT22;4618;48.818;9.088;2023-05-09T07:23:33;19.90;1.00
9167;DHT22;4618;48.818;9.088;2023-05-09T07:25:59;20.00;1.00
9167;DHT22;4618;48.818;9.088;2023-05-09T07:28:25;19.30;1.00
9167;DHT22;4618;48.818;9.088;2023-05-09T07:30:51;19.40;99.90
9167;DHT22;4618;48.818;9.088;2023-05-09T07:33:16;19.40;1.00
9167;DHT22;4618;48.818;9.088;2023-05-09T07:35:42;19.40;99.90
9167;DHT22;4618;48.818;9.088;2023-05-09T07:38:07;19.50;1.00
9167;DHT22;4618;48.818;9.088;2023-05-09T07:40:32;19.20;39.70
9167;DHT22;4618;48.818;9.088;2023-05-09T07:43:00;18.90;99.90
9167;DHT22;4618;48.818;9.088;2023-05-09T07:45:26;18.90;78.70
9167;DHT22;4618;48.818;9.088;2023-05-09T07:47:51;18.90;1.00
9167;DHT22;4618;48.818;9.088;2023-05-09T07:50:17;18.50;17.60
9167;DHT22;4618;48.818;9.088;2023-05-09T07:52:42;18.60;14.00
9167;DHT22;4618;48.818;9.088;2023-05-09T07:55:08;19.00;1.00
9167;DHT22;4618;48.818;9.088;2023-05-09T07:57:33;19.40;1.00
9167;DHT22;4618;48.818;9.088;2023-05-09T07:59:59;19.50;1.00
9167;DHT22;4618;48.818;9.088;2023-05-09T08:02:24;20.10;99.90
9167;DHT22;4618;48.818;9.088;2023-05-09T08:04:50;20.40;1.00
9167;DHT22;4618;48.818;9.088;2023-05-09T08:07:15;20.00;1.00
9167;DHT22;4618;48.818;9.088;2023-05-09T08:09:41;19.70;1.00
9167;DHT22;4618;48.818;9.088;2023-05-09T08:12:06;19.60;1.00
9167;DHT22;4618;48.818;9.088;2023-05-09T08:14:32;20.00;99.90
9167;DHT22;4618;48.818;9.088;2023-05-09T08:16:57;20.30;99.90
9167;DHT22;4618;48.818;9.088;2023-05-09T08:19:23;20.90;1.00
9167;DHT22;4618;48.818;9.088;2023-05-09T08:21:50;21.50;1.00
9167;DHT22;4618;48.818;9.088;2023-05-09T08:24:16;22.30;99.90
9167;DHT22;4618;48.818;9.088;2023-05-09T08:26:41;22.70;1.00
9167;DHT22;4618;48.818;9.088;2023-05-09T08:29:08;22.80;1.00
9167;DHT22;4618;48.818;9.088;2023-05-09T08:31:33;23.50;1.00
9167;DHT22;4618;48.818;9.088;2023-05-09T08:33:59;23.70;1.00
9167;DHT22;4618;48.818;9.088;2023-05-09T08:36:25;23.50;1.00
9167;DHT22;4618;48.818;9.088;2023-05-09T08:38:50;23.40;1.00
9167;DHT22;4618;48.818;9.088;2023-05-09T08:41:16;23.40;1.00
9167;DHT22;4618;48.818;9.088;2023-05-09T08:43:42;23.70;1.00
9167;DHT22;4618;48.818;9.088;2023-05-09T08:46:09;23.90;1.00
9167;DHT22;4618;48.818;9.088;2023-05-09T08:48:35;24.10;1.00
9167;DHT22;4618;48.818;9.088;2023-05-09T08:51:05;25.10;1.00
9167;DHT22;4618;48.818;9.088;2023-05-09T08:53:31;25.10;1.00
9167;DHT22;4618;48.818;9.088;2023-05-09T08:55:58;24.30;1.00
9167;DHT22;4618;48.818;9.088;2023-05-09T08:58:26;24.10;1.00
9167;DHT22;4618;48.818;9.088;2023-05-09T09:00:52;23.30;1.00
9167;DHT22;4618;48.818;9.088;2023-05-09T09:03:19;22.70;1.00
9167;DHT22;4618;48.818;9.088;2023-05-09T09:05:46;22.30;1.00
9167;DHT22;4618;48.818;9.088;2023-05-09T09:08:13;22.20;1.00
9167;DHT22;4618;48.818;9.088;2023-05-09T09:10:40;22.30;1.00
9167;DHT22;4618;48.818;9.088;2023-05-09T09:13:12;22.10;1.00
9167;DHT22;4618;48.818;9.088;2023-05-09T09:15:39;22.10;1.00
9167;DHT22;4618;48.818;9.088;2023-05-09T09:18:11;21.90;1.00
9167;DHT22;4618;48.818;9.088;2023-05-09T09:20:54;22.10;1.00
9167;DHT22;4618;48.818;9.088;2023-05-09T09:23:23;22.10;1.00
9167;DHT22;4618;48.818;9.088;2023-05-09T09:26:00;21.90;1.00
9167;DHT22;4618;48.818;9.088;2023-05-09T09:28:25;21.80;1.00
9167;DHT22;4618;48.818;9.088;2023-05-09T09:30:51;22.00;1.00
9167;DHT22;4618;48.818;9.088;2023-05-09T09:33:25;22.60;1.00
9167;DHT22;4618;48.818;9.088;2023-05-09T09:35:53;23.00;1.00
9167;DHT22;4618;48.818;9.088;2023-05-09T09:38:20;22.90;1.00
9167;DHT22;4618;48.818;9.088;2023-05-09T09:40:53;23.00;1.00
9167;DHT22;4618;48.818;9.088;2023-05-09T09:43:25;23.30;1.00
9167;DHT22;4618;48.818;9.088;2023-05-09T09:45:52;23.40;1.00
9167;DHT22;4618;48.818;9.088;2023-05-09T09:48:25;23.40;1.00
9167;DHT22;4618;48.818;9.088;2023-05-09T09:50:55;23.40;1.00
9167;DHT22;4618;48.818;9.088;2023-05-09T09:53:26;23.70;1.00
9167;DHT22;4618;48.818;9.088;2023-05-09T09:55:54;23.50;1.00
9167;DHT22;4618;48.818;9.088;2023-05-09T09:58:20;23.20;1.00
9167;DHT22;4618;48.818;9.088;2023-05-09T10:01:11;23.60;1.00
9167;DHT22;4618;48.818;9.088;2023-05-09T10:03:42;23.10;1.00
9167;DHT22;4618;48.818;9.088;2023-05-09T10:06:13;22.90;1.00
9167;DHT22;4618;48.818;9.088;2023-05-09T10:08:40;22.90;1.00
9167;DHT22;4618;48.818;9.088;2023-05-09T10:11:06;23.30;1.00
9167;DHT22;4618;48.818;9.088;2023-05-09T10:13:36;24.20;1.00
9167;DHT22;4618;48.818;9.088;2023-05-09T10:16:03;24.30;1.00
9167;DHT22;4618;48.818;9.088;2023-05-09T10:18:30;25.00;1.00
9167;DHT22;4618;48.818;9.088;2023-05-09T10:20:56;25.40;1.00
9167;DHT22;4618;48.818;9.088;2023-05-09T10:23:27;26.10;1.00
9167;DHT22;4618;48.818;9.088;2023-05-09T10:25:59;25.10;1.00
9167;DHT22;4618;48.818;9.088;2023-05-09T10:28:32;24.60;1.00
9167;DHT22;4618;48.818;9.088;2023-05-09T10:31:11;23.60;1.00
9167;DHT22;4618;48.818;9.088;2023-05-09T10:33:49;22.60;1.00
9167;DHT22;4618;48.818;9.088;2023-05-09T10:36:16;22.00;1.00
9167;DHT22;4618;48.818;9.088;2023-05-09T10:38:42;22.10;1.00
9167;DHT22;4618;48.818;9.088;2023-05-09T10:41:09;23.20;1.00
9167;DHT22;4618;48.818;9.088;2023-05-09T10:43:36;24.10;1.00
9167;DHT22;4618;48.818;9.088;2023-05-09T10:46:04;23.80;1.00
9167;DHT22;4618;48.818;9.088;2023-05-09T10:48:32;24.70;1.00
9167;DHT22;4618;48.818;9.088;2023-05-09T10:50:59;23.90;1.00
9167;DHT22;4618;48.818;9.088;2023-05-09T10:53:46;24.90;1.00
9167;DHT22;4618;48.818;9.088;2023-05-09T10:56:32;27.00;1.00
9167;DHT22;4618;48.818;9.088;2023-05-09T10:58:58;26.90;1.00
9167;DHT22;4618;48.818;9.088;2023-05-09T11:01:29;26.20;1.00
9167;DHT22;4618;48.818;9.088;2023-05-09T11:03:57;25.70;1.00
9167;DHT22;4618;48.818;9.088;2023-05-09T11:06:50;25.80;1.00
9167;DHT22;4618;48.818;9.088;2023-05-09T11:09:35;27.10;1.00
9167;DHT22;4618;48.818;9.088;2023-05-09T11:12:10;28.40;1.00
9167;DHT22;4618;48.818;9.088;2023-05-09T11:14:46;28.40;1.00
9167;DHT22;4618;48.818;9.088;2023-05-09T11:22:19;26.40;1.00
9167;DHT22;4618;48.818;9.088;2023-05-09T11:25:06;25.00;1.00
9167;DHT22;4618;48.818;9.088;2023-05-09T11:27:46;24.80;1.00
9167;DHT22;4618;48.818;9.088;2023-05-09T11:30:18;26.10;1.00
9167;DHT22;4618;48.818;9.088;2023-05-09T11:32:49;27.10;1.00
9167;DHT22;4618;48.818;9.088;2023-05-09T11:35:19;27.80;1.00
9167;DHT22;4618;48.818;9.088;2023-05-09T11:40:12;27.90;1.00
9167;DHT22;4618;48.818;9.088;2023-05-09T11:42:41;28.10;1.00
9167;DHT22;4618;48.818;9.088;2023-05-09T11:45:09;27.80;1.00
9167;DHT22;4618;48.818;9.088;2023-05-09T11:47:36;27.40;1.00
9167;DHT22;4618;48.818;9.088;2023-05-09T11:50:05;27.40;1.00
9167;DHT22;4618;48.818;9.088;2023-05-09T11:52:31;27.40;1.00
9167;DHT22;4618;48.818;9.088;2023-05-09T11:55:00;27.70;1.00
9167;DHT22;4618;48.818;9.088;2023-05-09T11:57:27;27.80;1.00
9167;DHT22;4618;48.818;9.088;2023-05-09T11:59:52;28.10;1.00
9167;DHT22;4618;48.818;9.088;2023-05-09T12:02:18;28.10;1.00
9167;DHT22;4618;48.818;9.088;2023-05-09T12:04:43;28.60;1.00
9167;DHT22;4618;48.818;9.088;2023-05-09T12:07:10;28.70;1.00
9167;DHT22;4618;48.818;9.088;2023-05-09T12:09:39;29.00;1.00
9167;DHT22;4618;48.818;9.088;2023-05-09T12:12:12;28.40;1.00
9167;DHT22;4618;48.818;9.088;2023-05-09T12:14:38;28.40;1.00
9167;DHT22;4618;48.818;9.088;2023-05-09T12:17:05;28.00;1.00
9167;DHT22;4618;48.818;9.088;2023-05-09T12:19:31;26.00;1.00
9167;DHT22;4618;48.818;9.088;2023-05-09T12:21:58;26.40;1.00
9167;DHT22;4618;48.818;9.088;2023-05-09T12:24:27;27.00;1.00
9167;DHT22;4618;48.818;9.088;2023-05-09T12:26:55;26.80;1.00
9167;DHT22;4618;48.818;9.088;2023-05-09T12:29:22;26.80;1.00
9167;DHT22;4618;48.818;9.088;2023-05-09T12:31:49;27.30;1.00
9167;DHT22;4618;48.818;9.088;2023-05-09T12:34:15;26.60;1.00
9167;DHT22;4618;48.818;9.088;2023-05-09T12:36:44;26.50;1.00
9167;DHT22;4618;48.818;9.088;2023-05-09T12:39:18;25.70;1.00
9167;DHT22;4618;48.818;9.088;2023-05-09T12:41:50;25.30;1.00
9167;DHT22;4618;48.818;9.088;2023-05-09T12:44:23;25.20;1.00
9167;DHT22;4618;48.818;9.088;2023-05-09T12:47:15;26.20;1.00
9167;DHT22;4618;48.818;9.088;2023-05-09T12:49:41;26.60;1.00
9167;DHT22;4618;48.818;9.088;2023-05-09T12:52:16;26.70;1.00
9167;DHT22;4618;48.818;9.088;2023-05-09T12:54:45;26.00;1.00
9167;DHT22;4618;48.818;9.088;2023-05-09T12:57:20;26.40;1.00
9167;DHT22;4618;48.818;9.088;2023-05-09T12:59:50;25.90;1.00
9167;DHT22;4618;48.818;9.088;2023-05-09T13:02:18;25.70;1.00
9167;DHT22;4618;48.818;9.088;2023-05-09T13:04:43;25.70;1.00
9167;DHT22;4618;48.818;9.088;2023-05-09T13:07:09;25.60;1.00
9167;DHT22;4618;48.818;9.088;2023-05-09T13:09:35;25.30;1.00
9167;DHT22;4618;48.818;9.088;2023-05-09T13:12:02;25.20;1.00
9167;DHT22;4618;48.818;9.088;2023-05-09T13:14:34;24.60;1.00
9167;DHT22;4618;48.818;9.088;2023-05-09T13:16:59;23.90;1.00
9167;DHT22;4618;48.818;9.088;2023-05-09T13:19:25;23.90;1.00
9167;DHT22;4618;48.818;9.088;2023-05-09T13:21:53;24.20;1.00
9167;DHT22;4618;48.818;9.088;2023-05-09T13:24:19;24.60;1.00
9167;DHT22;4618;48.818;9.088;2023-05-09T13:26:45;24.30;1.00
9167;DHT22;4618;48.818;9.088;2023-05-09T13:29:10;25.10;1.00
9167;DHT22;4618;48.818;9.088;2023-05-09T13:31:36;25.80;1.00
9167;DHT22;4618;48.818;9.088;2023-05-09T13:34:01;25.50;1.00
9167;DHT22;4618;48.818;9.088;2023-05-09T13:36:27;25.30;1.00
9167;DHT22;4618;48.818;9.088;2023-05-09T13:38:52;25.50;1.00
9167;DHT22;4618;48.818;9.088;2023-05-09T13:41:18;25.60;1.00
9167;DHT22;4618;48.818;9.088;2023-05-09T13:43:48;26.10;1.00
9167;DHT22;4618;48.818;9.088;2023-05-09T13:46:13;26.40;1.00
9167;DHT22;4618;48.818;9.088;2023-05-09T13:48:39;26.40;1.00
9167;DHT22;4618;48.818;9.088;2023-05-09T13:51:06;25.30;1.00
9167;DHT22;4618;48.818;9.088;2023-05-09T13:53:32;24.20;1.00
9167;DHT22;4618;48.818;9.088;2023-05-09T13:55:57;24.10;1.00
9167;DHT22;4618;48.818;9.088;2023-05-09T13:58:26;24.30;1.00
9167;DHT22;4618;48.818;9.088;2023-05-09T14:00:52;24.60;1.00
9167;DHT22;4618;48.818;9.088;2023-05-09T14:03:17;24.50;1.00
9167;DHT22;4618;48.818;9.088;2023-05-09T14:05:43;24.10;1.00
9167;DHT22;4618;48.818;9.088;2023-05-09T14:08:08;23.50;1.00
9167;DHT22;4618;48.818;9.088;2023-05-09T14:10:34;23.00;1.00
9167;DHT22;4618;48.818;9.088;2023-05-09T14:12:59;22.80;1.00
9167;DHT22;4618;48.818;9.088;2023-05-09T14:15:25;22.60;1.00
9167;DHT22;4618;48.818;9.088;2023-05-09T14:17:51;22.70;1.00
9167;DHT22;4618;48.818;9.088;2023-05-09T14:20:16;22.90;1.00
9167;DHT22;4618;48.818;9.088;2023-05-09T14:22:42;23.00;1.00
9167;DHT22;4618;48.818;9.088;2023-05-09T14:25:13;23.30;1.00
9167;DHT22;4618;48.818;9.088;2023-05-09T14:27:38;23.40;1.00
9167;DHT22;4618;48.818;9.088;2023-05-09T14:30:04;23.20;1.00
9167;DHT22;4618;48.818;9.088;2023-05-09T14:32:30;23.00;1.00
9167;DHT22;4618;48.818;9.088;2023-05-09T14:34:56;23.20;1.00
9167;DHT22;4618;48.818;9.088;2023-05-09T14:37:25;23.30;1.00
9167;DHT22;4618;48.818;9.088;2023-05-09T14:39:57;23.30;1.00
9167;DHT22;4618;48.818;9.088;2023-05-09T14:42:30;23.50;1.00
9167;DHT22;4618;48.818;9.088;2023-05-09T14:44:55;23.30;1.00
9167;DHT22;4618;48.818;9.088;2023-05-09T14:47:21;23.00;1.00
9167;DHT22;4618;48.818;9.088;2023-05-09T14:49:47;23.10;1.00
9167;DHT22;4618;48.818;9.088;2023-05-09T14:52:12;23.60;1.00
9167;DHT22;4618;48.818;9.088;2023-05-09T14:54:38;24.10;1.00
9167;DHT22;4618;48.818;9.088;2023-05-09T14:57:03;24.30;1.00
9167;DHT22;4618;48.818;9.088;2023-05-09T14:59:31;24.20;1.00
9167;DHT22;4618;48.818;9.088;2023-05-09T15:01:56;24.80;1.00
9167;DHT22;4618;48.818;9.088;2023-05-09T15:04:24;25.10;1.00
9167;DHT22;4618;48.818;9.088;2023-05-09T15:06:55;25.10;1.00
9167;DHT22;4618;48.818;9.088;2023-05-09T15:09:21;25.50;1.00
9167;DHT22;4618;48.818;9.088;2023-05-09T15:11:47;25.10;1.00
9167;DHT22;4618;48.818;9.088;2023-05-09T15:14:13;24.90;1.00
9167;DHT22;4618;48.818;9.088;2023-05-09T15:16:39;24.90;1.00
9167;DHT22;4618;48.818;9.088;2023-05-09T15:19:04;25.00;1.00
9167;DHT22;4618;48.818;9.088;2023-05-09T15:21:30;24.80;1.00
9167;DHT22;4618;48.818;9.088;2023-05-09T15:23:56;24.70;1.00
9167;DHT22;4618;48.818;9.088;2023-05-09T15:26:22;24.60;1.00
9167;DHT22;4618;48.818;9.088;2023-05-09T15:28:48;24.20;1.00
9167;DHT22;4618;48.818;9.088;2023-05-09T15:31:14;24.10;1.00
9167;DHT22;4618;48.818;9.088;2023-05-09T15:33:39;23.90;1.00
9167;DHT22;4618;48.818;9.088;2023-05-09T15:36:05;23.90;1.00
9167;DHT22;4618;48.818;9.088;2023-05-09T15:38:32;23.60;1.00
9167;DHT22;4618;48.818;9.088;2023-05-09T15:40:57;23.20;1.00
9167;DHT22;4618;48.818;9.088;2023-05-09T15:43:23;23.30;1.00
9167;DHT22;4618;48.818;9.088;2023-05-09T15:45:48;23.10;1.00
9167;DHT22;4618;48.818;9.088;2023-05-09T15:48:14;22.60;1.00
9167;DHT22;4618;48.818;9.088;2023-05-09T15:50:41;22.60;1.00
9167;DHT22;4618;48.818;9.088;2023-05-09T15:53:07;22.30;1.00
9167;DHT22;4618;48.818;9.088;2023-05-09T15:55:33;22.40;1.00
9167;DHT22;4618;48.818;9.088;2023-05-09T15:57:58;22.50;1.00
9167;DHT22;4618;48.818;9.088;2023-05-09T16:00:24;22.60;1.00
9167;DHT22;4618;48.818;9.088;2023-05-09T16:02:50;22.60;1.00
9167;DHT22;4618;48.818;9.088;2023-05-09T16:05:16;22.60;1.00
9167;DHT22;4618;48.818;9.088;2023-05-09T16:07:45;22.50;1.00
9167;DHT22;4618;48.818;9.088;2023-05-09T16:10:12;22.40;1.00
9167;DHT22;4618;48.818;9.088;2023-05-09T16:12:41;22.30;1.00
9167;DHT22;4618;48.818;9.088;2023-05-09T16:15:07;22.10;1.00
9167;DHT22;4618;48.818;9.088;2023-05-09T16:17:33;22.00;1.00
9167;DHT22;4618;48.818;9.088;2023-05-09T16:19:58;22.00;1.00
9167;DHT22;4618;48.818;9.088;2023-05-09T16:22:24;22.00;1.00
9167;DHT22;4618;48.818;9.088;2023-05-09T16:24:53;21.90;1.00
9167;DHT22;4618;48.818;9.088;2023-05-09T16:27:19;21.90;1.00
9167;DHT22;4618;48.818;9.088;2023-05-09T16:29:45;21.70;1.00